Time,TemperatureF,DewpointF,PressureIn,WindDirection,WindDirectionDegrees,WindSpeedMPH,WindSpeedGustMPH,Humidity,HourlyPrecipIn,Conditions,Clouds,dailyrainin,SoftwareType,DateUTC
2013-01-21 00:03:00,2.0,-4.0,30.36,WNW,282,8.0,20.0,76,0.00,,,0.00,,2013-01-21 06:03:00,
2013-01-21 00:12:00,2.0,-4.0,30.36,WNW,282,8.0,20.0,76,0.00,,,0.00,,2013-01-21 06:12:00,
2013-01-21 00:23:00,2.0,-4.0,30.36,WNW,286,7.0,24.0,74,0.00,,,0.00,,2013-01-21 06:23:00,
2013-01-21 00:33:00,1.0,-5.0,30.36,NNW,331,5.0,25.0,74,0.00,,,0.00,,2013-01-21 06:33:00,
2013-01-21 00:43:00,1.0,-5.0,30.36,NNW,331,5.0,25.0,74,0.00,,,0.00,,2013-01-21 06:43:00,
2013-01-21 00:53:00,1.0,-5.0,30.36,WNW,287,5.0,16.0,74,0.00,,,0.00,,2013-01-21 06:53:00,
2013-01-21 01:03:00,0.0,-6.0,30.36,WNW,298,3.0,21.0,74,0.00,,,0.00,,2013-01-21 07:03:00,
2013-01-21 01:13:00,0.0,-6.0,30.36,WNW,298,3.0,21.0,74,0.00,,,0.00,,2013-01-21 07:13:00,
2013-01-21 01:22:00,0.0,-6.0,30.35,WNW,286,3.0,10.0,76,0.00,,,0.00,,2013-01-21 07:22:00,
2013-01-21 01:33:00,0.0,-5.0,30.35,WNW,302,5.0,13.0,78,0.00,,,0.00,,2013-01-21 07:33:00,
2013-01-21 01:42:00,0.0,-5.0,30.35,WNW,302,5.0,13.0,78,0.00,,,0.00,,2013-01-21 07:42:00,
2013-01-21 01:53:00,0.0,-6.0,30.36,WNW,284,8.0,24.0,75,0.00,,,0.00,,2013-01-21 07:53:00,
2013-01-21 02:03:00,0.0,-5.0,30.37,West,281,4.0,20.0,78,0.00,,,0.00,,2013-01-21 08:03:00,
2013-01-21 02:13:00,0.0,-5.0,30.37,West,281,4.0,20.0,78,0.00,,,0.00,,2013-01-21 08:13:00,
2013-01-21 02:23:00,-1.0,-7.0,30.36,NW,311,12.0,27.0,75,0.00,,,0.00,,2013-01-21 08:23:00,
2013-01-21 02:32:00,-1.0,-6.0,30.37,West,280,6.0,20.0,80,0.00,,,0.00,,2013-01-21 08:32:00,
2013-01-21 02:42:00,-1.0,-6.0,30.37,West,280,6.0,20.0,80,0.00,,,0.00,,2013-01-21 08:42:00,
2013-01-21 02:53:00,-1.0,-5.0,30.38,West,269,9.0,25.0,81,0.00,,,0.00,,2013-01-21 08:53:00,
2013-01-21 03:02:00,-3.0,-9.0,30.38,WNW,298,7.0,32.0,75,0.00,,,0.00,,2013-01-21 09:02:00,
2013-01-21 03:12:00,-3.0,-9.0,30.38,WNW,298,7.0,32.0,75,0.00,,,0.00,,2013-01-21 09:12:00,
2013-01-21 03:23:00,-3.0,-9.0,30.38,West,276,10.0,25.0,75,0.00,,,0.00,,2013-01-21 09:23:00,
2013-01-21 03:33:00,-4.0,-10.0,30.39,WNW,296,12.0,27.0,75,0.00,,,0.00,,2013-01-21 09:33:00,
2013-01-21 03:42:00,-4.0,-10.0,30.39,WNW,296,12.0,27.0,75,0.00,,,0.00,,2013-01-21 09:42:00,
2013-01-21 03:53:00,-5.0,-11.0,30.39,NNW,327,6.0,32.0,74,0.00,,,0.00,,2013-01-21 09:53:00,
2013-01-21 04:02:00,-6.0,-12.0,30.38,West,265,10.0,34.0,74,0.00,,,0.00,,2013-01-21 10:02:00,
2013-01-21 04:12:00,-6.0,-12.0,30.38,West,265,10.0,34.0,74,0.00,,,0.00,,2013-01-21 10:12:00,
2013-01-21 04:22:00,-6.0,-13.0,30.39,WNW,288,10.0,26.0,72,0.00,,,0.00,,2013-01-21 10:22:00,
2013-01-21 04:32:00,-7.0,-13.0,30.39,West,266,9.0,25.0,74,0.00,,,0.00,,2013-01-21 10:32:00,
2013-01-21 04:43:00,-7.0,-13.0,30.39,West,266,9.0,25.0,74,0.00,,,0.00,,2013-01-21 10:43:00,
2013-01-21 04:53:00,-7.0,-13.0,30.39,WNW,292,6.0,22.0,73,0.00,,,0.00,,2013-01-21 10:53:00,
2013-01-21 05:02:00,-7.0,-13.0,30.39,NW,307,7.0,19.0,74,0.00,,,0.00,,2013-01-21 11:02:00,
2013-01-21 05:13:00,-7.0,-13.0,30.39,NW,307,7.0,19.0,74,0.00,,,0.00,,2013-01-21 11:13:00,
2013-01-21 05:23:00,-7.0,-13.0,30.39,West,273,8.0,23.0,73,0.00,,,0.00,,2013-01-21 11:23:00,
2013-01-21 05:33:00,-7.0,-13.0,30.39,WNW,285,11.0,22.0,73,0.00,,,0.00,,2013-01-21 11:33:00,
2013-01-21 05:42:00,-7.0,-13.0,30.39,WNW,285,11.0,22.0,73,0.00,,,0.00,,2013-01-21 11:42:00,
2013-01-21 05:53:00,-7.0,-13.0,30.39,NW,312,4.0,18.0,74,0.00,,,0.00,,2013-01-21 11:53:00,
2013-01-21 06:02:00,-7.0,-13.0,30.39,West,277,9.0,24.0,73,0.00,,,0.00,,2013-01-21 12:02:00,
2013-01-21 06:12:00,-7.0,-13.0,30.39,West,277,9.0,24.0,73,0.00,,,0.00,,2013-01-21 12:12:00,
2013-01-21 06:22:00,-7.0,-13.0,30.39,West,275,9.0,24.0,74,0.00,,,0.00,,2013-01-21 12:22:00,
2013-01-21 06:32:00,-7.0,-13.0,30.39,WNW,303,10.0,27.0,74,0.00,,,0.00,,2013-01-21 12:32:00,
2013-01-21 06:42:00,-7.0,-13.0,30.39,WNW,303,10.0,27.0,74,0.00,,,0.00,,2013-01-21 12:42:00,
2013-01-21 06:53:00,-7.0,-13.0,30.39,WNW,298,4.0,19.0,75,0.00,,,0.00,,2013-01-21 12:53:00,
2013-01-21 07:02:00,-7.0,-13.0,30.39,WNW,295,6.0,30.0,74,0.00,,,0.00,,2013-01-21 13:02:00,
2013-01-21 07:13:00,-7.0,-13.0,30.39,WNW,295,6.0,30.0,74,0.00,,,0.00,,2013-01-21 13:13:00,
2013-01-21 07:23:00,-7.0,-13.0,30.39,WNW,290,5.0,18.0,74,0.00,,,0.00,,2013-01-21 13:23:00,
2013-01-21 07:33:00,-7.0,-13.0,30.39,NW,314,5.0,15.0,75,0.00,,,0.00,,2013-01-21 13:33:00,
2013-01-21 07:43:00,-7.0,-13.0,30.39,NW,314,5.0,15.0,75,0.00,,,0.00,,2013-01-21 13:43:00,
2013-01-21 07:54:00,-7.0,-13.0,30.39,WNW,297,6.0,18.0,75,0.00,,,0.00,,2013-01-21 13:54:00,
2013-01-21 08:03:00,-7.0,-13.0,30.39,WNW,295,4.0,14.0,75,0.00,,,0.00,,2013-01-21 14:03:00,
2013-01-21 08:12:00,-7.0,-13.0,30.39,WNW,295,4.0,14.0,75,0.00,,,0.00,,2013-01-21 14:12:00,
2013-01-21 08:23:00,-7.0,-13.0,30.39,NW,305,6.0,16.0,75,0.00,,,0.00,,2013-01-21 14:23:00,
2013-01-21 08:32:00,-7.0,-13.0,30.39,WNW,283,6.0,17.0,75,0.00,,,0.00,,2013-01-21 14:32:00,
2013-01-21 08:43:00,-7.0,-13.0,30.39,WNW,283,6.0,17.0,75,0.00,,,0.00,,2013-01-21 14:43:00,
2013-01-21 08:53:00,-6.0,-12.0,30.40,WNW,292,8.0,27.0,74,0.00,,,0.00,,2013-01-21 14:53:00,
2013-01-21 09:03:00,-6.0,-12.0,30.40,West,280,8.0,27.0,73,0.00,,,0.00,,2013-01-21 15:03:00,
2013-01-21 09:13:00,-6.0,-12.0,30.40,West,280,8.0,27.0,73,0.00,,,0.00,,2013-01-21 15:13:00,
2013-01-21 09:23:00,-5.0,-12.0,30.40,WNW,286,9.0,24.0,72,0.00,,,0.00,,2013-01-21 15:23:00,
2013-01-21 09:33:00,-5.0,-12.0,30.40,West,275,6.0,23.0,72,0.00,,,0.00,,2013-01-21 15:33:00,
2013-01-21 09:43:00,-5.0,-12.0,30.40,West,275,6.0,23.0,72,0.00,,,0.00,,2013-01-21 15:43:00,
2013-01-21 09:53:00,-4.0,-11.0,30.41,WSW,254,4.0,21.0,72,0.00,,,0.00,,2013-01-21 15:53:00,
2013-01-21 10:03:00,-4.0,-11.0,30.42,West,270,8.0,22.0,71,0.00,,,0.00,,2013-01-21 16:03:00,
2013-01-21 10:12:00,-4.0,-11.0,30.42,West,270,8.0,22.0,71,0.00,,,0.00,,2013-01-21 16:12:00,
2013-01-21 10:23:00,-4.0,-11.0,30.42,WNW,286,9.0,23.0,72,0.00,,,0.00,,2013-01-21 16:23:00,
2013-01-21 10:33:00,-3.0,-9.0,30.42,WNW,293,5.0,21.0,73,0.00,,,0.00,,2013-01-21 16:33:00,
2013-01-21 10:43:00,-3.0,-9.0,30.42,WNW,293,5.0,21.0,73,0.00,,,0.00,,2013-01-21 16:43:00,
2013-01-21 10:53:00,-3.0,-10.0,30.42,West,280,6.0,21.0,72,0.00,,,0.00,,2013-01-21 16:53:00,
2013-01-21 11:02:00,-2.0,-9.0,30.42,WNW,295,7.0,27.0,72,0.00,,,0.00,,2013-01-21 17:02:00,
2013-01-21 11:12:00,-2.0,-9.0,30.42,WNW,295,7.0,27.0,72,0.00,,,0.00,,2013-01-21 17:12:00,
2013-01-21 11:23:00,-2.0,-9.0,30.42,WNW,295,7.0,27.0,72,0.00,,,0.00,,2013-01-21 17:23:00,
2013-01-21 11:33:00,-1.0,-8.0,30.41,West,280,10.0,30.0,71,0.00,,,0.00,,2013-01-21 17:33:00,
2013-01-21 11:43:00,-1.0,-8.0,30.41,West,280,10.0,30.0,71,0.00,,,0.00,,2013-01-21 17:43:00,
2013-01-21 11:53:00,-1.0,-8.0,30.40,West,278,7.0,24.0,72,0.00,,,0.00,,2013-01-21 17:53:00,
2013-01-21 12:03:00,-1.0,-8.0,30.40,West,269,11.0,24.0,71,0.00,,,0.00,,2013-01-21 18:03:00,
2013-01-21 12:12:00,-1.0,-8.0,30.40,West,269,11.0,24.0,71,0.00,,,0.00,,2013-01-21 18:12:00,
2013-01-21 12:22:00,0.0,-7.0,30.39,WNW,303,7.0,31.0,71,0.00,,,0.00,,2013-01-21 18:22:00,
2013-01-21 12:33:00,1.0,-7.0,30.38,WNW,295,10.0,24.0,69,0.00,,,0.00,,2013-01-21 18:33:00,
2013-01-21 12:42:00,1.0,-7.0,30.38,WNW,295,10.0,24.0,69,0.00,,,0.00,,2013-01-21 18:42:00,
2013-01-21 12:53:00,1.0,-6.0,30.37,West,281,12.0,32.0,71,0.00,,,0.00,,2013-01-21 18:53:00,
2013-01-21 13:03:00,1.0,-6.0,30.37,WNW,294,9.0,22.0,71,0.00,,,0.00,,2013-01-21 19:03:00,
2013-01-21 13:12:00,1.0,-6.0,30.37,WNW,294,9.0,22.0,71,0.00,,,0.00,,2013-01-21 19:12:00,
2013-01-21 13:22:00,2.0,-6.0,30.36,WNW,284,8.0,20.0,70,0.00,,,0.00,,2013-01-21 19:22:00,
2013-01-21 13:33:00,3.0,-4.0,30.35,NW,316,5.0,18.0,71,0.00,,,0.00,,2013-01-21 19:33:00,
2013-01-21 13:43:00,3.0,-4.0,30.35,NW,316,5.0,18.0,71,0.00,,,0.00,,2013-01-21 19:43:00,
2013-01-21 13:53:00,2.0,-6.0,30.35,West,273,9.0,24.0,69,0.00,,,0.00,,2013-01-21 19:53:00,
2013-01-21 14:03:00,3.0,-5.0,30.34,West,281,12.0,28.0,68,0.00,,,0.00,,2013-01-21 20:03:00,
2013-01-21 14:12:00,3.0,-5.0,30.34,West,281,12.0,28.0,68,0.00,,,0.00,,2013-01-21 20:12:00,
2013-01-21 14:23:00,3.0,-5.0,30.34,West,276,7.0,29.0,69,0.00,,,0.00,,2013-01-21 20:23:00,
2013-01-21 14:33:00,3.0,-5.0,30.34,NW,314,8.0,24.0,69,0.00,,,0.00,,2013-01-21 20:33:00,
2013-01-21 14:43:00,3.0,-5.0,30.34,NW,314,8.0,24.0,69,0.00,,,0.00,,2013-01-21 20:43:00,
2013-01-21 14:53:00,3.0,-5.0,30.34,WNW,286,8.0,21.0,69,0.00,,,0.00,,2013-01-21 20:53:00,
2013-01-21 15:03:00,3.0,-5.0,30.34,WNW,292,8.0,21.0,69,0.00,,,0.00,,2013-01-21 21:03:00,
2013-01-21 15:12:00,3.0,-5.0,30.34,WNW,292,8.0,21.0,69,0.00,,,0.00,,2013-01-21 21:12:00,
2013-01-21 15:23:00,4.0,-4.0,30.34,WNW,284,7.0,23.0,68,0.00,,,0.00,,2013-01-21 21:23:00,
2013-01-21 15:33:00,4.0,-4.0,30.34,NW,316,8.0,22.0,68,0.00,,,0.00,,2013-01-21 21:33:00,
2013-01-21 15:43:00,4.0,-4.0,30.34,NW,316,8.0,22.0,68,0.00,,,0.00,,2013-01-21 21:43:00,
2013-01-21 15:53:00,4.0,-4.0,30.34,WNW,283,6.0,21.0,68,0.00,,,0.00,,2013-01-21 21:53:00,
2013-01-21 16:03:00,4.0,-4.0,30.34,West,279,9.0,18.0,68,0.00,,,0.00,,2013-01-21 22:03:00,
2013-01-21 16:12:00,4.0,-4.0,30.34,West,279,9.0,18.0,68,0.00,,,0.00,,2013-01-21 22:12:00,
2013-01-21 16:23:00,4.0,-4.0,30.34,WNW,287,8.0,21.0,67,0.00,,,0.00,,2013-01-21 22:23:00,
2013-01-21 16:33:00,4.0,-4.0,30.34,WNW,284,10.0,21.0,67,0.00,,,0.00,,2013-01-21 22:33:00,
2013-01-21 16:43:00,4.0,-4.0,30.34,WNW,284,10.0,21.0,67,0.00,,,0.00,,2013-01-21 22:43:00,
2013-01-21 16:53:00,4.0,-4.0,30.34,West,264,7.0,22.0,69,0.00,,,0.00,,2013-01-21 22:53:00,
2013-01-21 17:03:00,3.0,-5.0,30.34,West,277,5.0,22.0,69,0.00,,,0.00,,2013-01-21 23:03:00,
2013-01-21 17:12:00,3.0,-5.0,30.34,West,277,5.0,22.0,69,0.00,,,0.00,,2013-01-21 23:12:00,
2013-01-21 17:23:00,3.0,-5.0,30.34,NW,307,7.0,18.0,69,0.00,,,0.00,,2013-01-21 23:23:00,
2013-01-21 17:33:00,2.0,-6.0,30.34,West,276,7.0,18.0,70,0.00,,,0.00,,2013-01-21 23:33:00,
2013-01-21 17:42:00,2.0,-6.0,30.34,West,276,7.0,18.0,70,0.00,,,0.00,,2013-01-21 23:42:00,
2013-01-21 17:53:00,2.0,-5.0,30.34,WNW,301,4.0,14.0,71,0.00,,,0.00,,2013-01-21 23:53:00,
2013-01-21 18:02:00,2.0,-5.0,30.35,West,263,4.0,11.0,72,0.00,,,0.00,,2013-01-22 00:02:00,
2013-01-21 18:12:00,2.0,-5.0,30.35,West,263,4.0,11.0,72,0.00,,,0.00,,2013-01-22 00:12:00,
2013-01-21 18:22:00,1.0,-6.0,30.35,WNW,288,4.0,12.0,72,0.00,,,0.00,,2013-01-22 00:22:00,
2013-01-21 18:32:00,1.0,-6.0,30.35,WNW,290,4.0,13.0,73,0.00,,,0.00,,2013-01-22 00:32:00,
2013-01-21 18:43:00,1.0,-6.0,30.35,WNW,290,4.0,13.0,73,0.00,,,0.00,,2013-01-22 00:43:00,
2013-01-21 18:53:00,1.0,-5.0,30.35,West,281,3.0,6.0,74,0.00,,,0.00,,2013-01-22 00:53:00,
2013-01-21 19:02:00,1.0,-5.0,30.35,WNW,285,3.0,9.0,74,0.00,,,0.00,,2013-01-22 01:02:00,
2013-01-21 19:12:00,1.0,-5.0,30.35,WNW,285,3.0,9.0,74,0.00,,,0.00,,2013-01-22 01:12:00,
2013-01-21 19:23:00,1.0,-5.0,30.35,WNW,285,3.0,9.0,74,0.00,,,0.00,,2013-01-22 01:23:00,